sensor_id;sensor_type;location;lat;lon;timestamp;temperature;humidity
3896;DHT22;1963;48.804;8.358;2022-07-15T02:24:36;15.70;62.60
3896;DHT22;1963;48.804;8.358;2022-07-15T02:27:04;15.70;65.90
3896;DHT22;1963;48.804;8.358;2022-07-15T02:29:32;15.70;62.70
3896;DHT22;1963;48.804;8.358;2022-07-15T02:32:00;15.70;64.30
3896;DHT22;1963;48.804;8.358;2022-07-15T02:34:28;15.60;62.80
3896;DHT22;1963;48.804;8.358;2022-07-15T02:36:55;15.50;64.30
3896;DHT22;1963;48.804;8.358;2022-07-15T02:39:24;15.50;66.00
3896;DHT22;1963;48.804;8.358;2022-07-15T02:41:53;15.50;63.80
3896;DHT22;1963;48.804;8.358;2022-07-15T02:44:21;15.50;66.80
3896;DHT22;1963;48.804;8.358;2022-07-15T02:46:49;15.50;65.60
3896;DHT22;1963;48.804;8.358;2022-07-15T02:49:18;15.60;65.00
3896;DHT22;1963;48.804;8.358;2022-07-15T02:51:45;15.50;63.90
3896;DHT22;1963;48.804;8.358;2022-07-15T02:54:13;15.40;65.60
3896;DHT22;1963;48.804;8.358;2022-07-15T02:56:41;15.30;65.60
3896;DHT22;1963;48.804;8.358;2022-07-15T02:59:11;15.30;63.80
3896;DHT22;1963;48.804;8.358;2022-07-15T03:01:39;15.50;65.20
3896;DHT22;1963;48.804;8.358;2022-07-15T03:04:07;15.30;66.20
3896;DHT22;1963;48.804;8.358;2022-07-15T03:06:35;15.40;66.00
3896;DHT22;1963;48.804;8.358;2022-07-15T03:09:03;15.30;65.90
3896;DHT22;1963;48.804;8.358;2022-07-15T03:11:31;15.20;65.70
3896;DHT22;1963;48.804;8.358;2022-07-15T03:13:59;15.30;65.20
3896;DHT22;1963;48.804;8.358;2022-07-15T03:16:28;15.20;64.60
3896;DHT22;1963;48.804;8.358;2022-07-15T03:18:57;15.20;66.00
3896;DHT22;1963;48.804;8.358;2022-07-15T03:21:25;15.20;66.30
3896;DHT22;1963;48.804;8.358;2022-07-15T03:23:52;15.20;65.70
3896;DHT22;1963;48.804;8.358;2022-07-15T03:26:21;15.20;66.70
3896;DHT22;1963;48.804;8.358;2022-07-15T03:28:48;15.30;67.20
3896;DHT22;1963;48.804;8.358;2022-07-15T03:31:16;15.30;68.10
3896;DHT22;1963;48.804;8.358;2022-07-15T03:33:46;15.20;66.10
3896;DHT22;1963;48.804;8.358;2022-07-15T03:36:19;15.30;67.10
3896;DHT22;1963;48.804;8.358;2022-07-15T03:38:48;15.30;64.80
3896;DHT22;1963;48.804;8.358;2022-07-15T03:41:18;15.30;64.70
3896;DHT22;1963;48.804;8.358;2022-07-15T03:43:46;15.50;65.90
3896;DHT22;1963;48.804;8.358;2022-07-15T03:46:14;15.30;64.10
3896;DHT22;1963;48.804;8.358;2022-07-15T03:48:44;15.40;63.00
3896;DHT22;1963;48.804;8.358;2022-07-15T03:51:13;15.40;66.50
3896;DHT22;1963;48.804;8.358;2022-07-15T03:53:42;15.30;66.80
3896;DHT22;1963;48.804;8.358;2022-07-15T03:56:10;15.60;67.70
3896;DHT22;1963;48.804;8.358;2022-07-15T03:58:37;15.30;64.30
3896;DHT22;1963;48.804;8.358;2022-07-15T04:01:05;15.40;67.30
3896;DHT22;1963;48.804;8.358;2022-07-15T04:03:33;15.40;65.50
3896;DHT22;1963;48.804;8.358;2022-07-15T04:06:02;15.40;66.20
3896;DHT22;1963;48.804;8.358;2022-07-15T04:08:31;15.40;64.50
3896;DHT22;1963;48.804;8.358;2022-07-15T04:10:59;15.40;67.50
3896;DHT22;1963;48.804;8.358;2022-07-15T04:13:27;15.40;67.40
3896;DHT22;1963;48.804;8.358;2022-07-15T04:15:55;15.40;66.90
3896;DHT22;1963;48.804;8.358;2022-07-15T04:18:23;15.40;67.10
3896;DHT22;1963;48.804;8.358;2022-07-15T04:20:56;15.60;68.10
3896;DHT22;1963;48.804;8.358;2022-07-15T04:23:23;15.40;65.80
3896;DHT22;1963;48.804;8.358;2022-07-15T04:25:54;15.50;65.40
3896;DHT22;1963;48.804;8.358;2022-07-15T04:28:22;15.50;67.60
3896;DHT22;1963;48.804;8.358;2022-07-15T04:30:51;15.50;66.80
3896;DHT22;1963;48.804;8.358;2022-07-15T04:33:18;15.50;65.40
3896;DHT22;1963;48.804;8.358;2022-07-15T04:35:47;15.60;66.40
3896;DHT22;1963;48.804;8.358;2022-07-15T04:38:14;15.60;65.90
3896;DHT22;1963;48.804;8.358;2022-07-15T04:40:43;15.60;67.50
3896;DHT22;1963;48.804;8.358;2022-07-15T04:43:13;15.60;68.40
3896;DHT22;1963;48.804;8.358;2022-07-15T04:45:40;15.60;66.50
3896;DHT22;1963;48.804;8.358;2022-07-15T04:48:08;15.70;66.80
3896;DHT22;1963;48.804;8.358;2022-07-15T04:50:53;15.80;66.30
3896;DHT22;1963;48.804;8.358;2022-07-15T04:53:22;15.80;66.00
3896;DHT22;1963;48.804;8.358;2022-07-15T04:55:51;15.90;66.10
3896;DHT22;1963;48.804;8.358;2022-07-15T04:58:21;16.00;64.80
3896;DHT22;1963;48.804;8.358;2022-07-15T05:00:49;16.10;64.90
3896;DHT22;1963;48.804;8.358;2022-07-15T05:03:17;16.30;64.30
3896;DHT22;1963;48.804;8.358;2022-07-15T05:05:45;16.70;65.90
3896;DHT22;1963;48.804;8.358;2022-07-15T05:08:15;17.10;65.90
3896;DHT22;1963;48.804;8.358;2022-07-15T05:10:43;17.50;65.00
3896;DHT22;1963;48.804;8.358;2022-07-15T05:13:12;17.90;65.30
3896;DHT22;1963;48.804;8.358;2022-07-15T05:15:41;18.20;64.90
3896;DHT22;1963;48.804;8.358;2022-07-15T05:18:09;18.40;63.20
3896;DHT22;1963;48.804;8.358;2022-07-15T05:20:40;18.40;62.90
3896;DHT22;1963;48.804;8.358;2022-07-15T05:23:20;18.50;62.50
3896;DHT22;1963;48.804;8.358;2022-07-15T09:17:19;44.80;26.00
3896;DHT22;1963;48.804;8.358;2022-07-15T09:20:09;44.80;24.40
3896;DHT22;1963;48.804;8.358;2022-07-15T09:22:52;44.30;27.90
3896;DHT22;1963;48.804;8.358;2022-07-15T09:25:22;44.50;25.10
3896;DHT22;1963;48.804;8.358;2022-07-15T09:27:51;44.90;27.40
3896;DHT22;1963;48.804;8.358;2022-07-15T09:30:21;45.20;27.20
3896;DHT22;1963;48.804;8.358;2022-07-15T09:33:10;44.80;25.30
3896;DHT22;1963;48.804;8.358;2022-07-15T09:36:16;44.30;27.60
3896;DHT22;1963;48.804;8.358;2022-07-15T09:38:49;44.10;27.00
3896;DHT22;1963;48.804;8.358;2022-07-15T09:41:28;44.30;27.10
3896;DHT22;1963;48.804;8.358;2022-07-15T09:44:10;44.50;28.90
3896;DHT22;1963;48.804;8.358;2022-07-15T09:46:42;44.10;24.50
3896;DHT22;1963;48.804;8.358;2022-07-15T09:49:13;43.60;26.90
3896;DHT22;1963;48.804;8.358;2022-07-15T09:51:44;42.90;26.10
3896;DHT22;1963;48.804;8.358;2022-07-15T09:54:13;42.40;24.80
3896;DHT22;1963;48.804;8.358;2022-07-15T09:56:49;42.60;25.70
3896;DHT22;1963;48.804;8.358;2022-07-15T09:59:18;42.60;28.50
3896;DHT22;1963;48.804;8.358;2022-07-15T10:01:49;42.40;25.50
3896;DHT22;1963;48.804;8.358;2022-07-15T10:04:32;42.40;25.70
3896;DHT22;1963;48.804;8.358;2022-07-15T10:07:19;42.40;26.80
3896;DHT22;1963;48.804;8.358;2022-07-15T10:10:00;42.20;26.60
3896;DHT22;1963;48.804;8.358;2022-07-15T10:13:09;42.20;26.50
3896;DHT22;1963;48.804;8.358;2022-07-15T10:15:46;42.00;25.70
3896;DHT22;1963;48.804;8.358;2022-07-15T10:18:50;41.70;28.40
3896;DHT22;1963;48.804;8.358;2022-07-15T10:22:05;41.30;26.00
3896;DHT22;1963;48.804;8.358;2022-07-15T10:24:55;40.80;25.30
3896;DHT22;1963;48.804;8.358;2022-07-15T10:27:50;40.00;26.00
3896;DHT22;1963;48.804;8.358;2022-07-15T10:30:22;39.20;26.30
3896;DHT22;1963;48.804;8.358;2022-07-15T10:33:08;39.50;27.60
3896;DHT22;1963;48.804;8.358;2022-07-15T10:35:43;39.50;27.60
3896;DHT22;1963;48.804;8.358;2022-07-15T10:38:25;39.00;26.10
3896;DHT22;1963;48.804;8.358;2022-07-15T10:41:08;38.40;28.00
3896;DHT22;1963;48.804;8.358;2022-07-15T10:43:38;38.90;28.10
3896;DHT22;1963;48.804;8.358;2022-07-15T10:46:28;38.80;25.70
3896;DHT22;1963;48.804;8.358;2022-07-15T10:49:33;38.80;27.20
3896;DHT22;1963;48.804;8.358;2022-07-15T10:52:17;38.30;25.70
3896;DHT22;1963;48.804;8.358;2022-07-15T10:54:59;38.10;26.50
3896;DHT22;1963;48.804;8.358;2022-07-15T10:57:54;38.00;28.30
3896;DHT22;1963;48.804;8.358;2022-07-15T11:00:29;37.70;27.50
3896;DHT22;1963;48.804;8.358;2022-07-15T11:03:05;37.70;27.30
3896;DHT22;1963;48.804;8.358;2022-07-15T11:06:00;37.50;27.00
3896;DHT22;1963;48.804;8.358;2022-07-15T11:09:06;36.70;28.20
3896;DHT22;1963;48.804;8.358;2022-07-15T11:11:58;36.70;27.30
3896;DHT22;1963;48.804;8.358;2022-07-15T11:14:55;36.20;28.50
3896;DHT22;1963;48.804;8.358;2022-07-15T11:17:36;35.90;28.10
3896;DHT22;1963;48.804;8.358;2022-07-15T11:30:50;35.10;28.80
3896;DHT22;1963;48.804;8.358;2022-07-15T11:36:29;35.50;28.60
3896;DHT22;1963;48.804;8.358;2022-07-15T11:39:32;34.90;29.00
3896;DHT22;1963;48.804;8.358;2022-07-15T11:42:36;34.60;29.30
3896;DHT22;1963;48.804;8.358;2022-07-15T11:45:41;34.10;29.70
3896;DHT22;1963;48.804;8.358;2022-07-15T11:48:54;34.10;29.80
3896;DHT22;1963;48.804;8.358;2022-07-15T11:51:38;34.00;30.00
3896;DHT22;1963;48.804;8.358;2022-07-15T11:54:25;33.50;30.00
3896;DHT22;1963;48.804;8.358;2022-07-15T12:00:51;32.80;30.30
3896;DHT22;1963;48.804;8.358;2022-07-15T12:03:21;32.40;31.50
3896;DHT22;1963;48.804;8.358;2022-07-15T12:06:28;32.10;31.90
3896;DHT22;1963;48.804;8.358;2022-07-15T12:09:07;31.90;32.10
3896;DHT22;1963;48.804;8.358;2022-07-15T12:11:37;31.70;32.70
3896;DHT22;1963;48.804;8.358;2022-07-15T12:14:06;31.70;32.60
3896;DHT22;1963;48.804;8.358;2022-07-15T12:16:41;31.70;32.50
3896;DHT22;1963;48.804;8.358;2022-07-15T12:19:14;31.70;32.70
3896;DHT22;1963;48.804;8.358;2022-07-15T12:21:57;31.50;33.30
3896;DHT22;1963;48.804;8.358;2022-07-15T12:24:57;31.30;33.70
3896;DHT22;1963;48.804;8.358;2022-07-15T12:27:39;31.00;32.00
3896;DHT22;1963;48.804;8.358;2022-07-15T12:30:10;31.10;33.00
3896;DHT22;1963;48.804;8.358;2022-07-15T12:32:42;31.00;32.90
3896;DHT22;1963;48.804;8.358;2022-07-15T12:35:10;30.70;33.70
3896;DHT22;1963;48.804;8.358;2022-07-15T12:45:15;30.40;34.20
3896;DHT22;1963;48.804;8.358;2022-07-15T12:48:00;30.20;33.60
3896;DHT22;1963;48.804;8.358;2022-07-15T12:50:30;30.10;33.90
3896;DHT22;1963;48.804;8.358;2022-07-15T12:53:05;30.00;33.70
3896;DHT22;1963;48.804;8.358;2022-07-15T12:55:45;30.00;34.40
3896;DHT22;1963;48.804;8.358;2022-07-15T12:58:17;29.70;33.40
3896;DHT22;1963;48.804;8.358;2022-07-15T13:00:47;29.80;34.30
3896;DHT22;1963;48.804;8.358;2022-07-15T13:03:22;29.60;34.70
3896;DHT22;1963;48.804;8.358;2022-07-15T13:05:54;29.40;34.00
3896;DHT22;1963;48.804;8.358;2022-07-15T13:08:24;29.40;34.70
3896;DHT22;1963;48.804;8.358;2022-07-15T13:10:55;29.30;34.00
3896;DHT22;1963;48.804;8.358;2022-07-15T13:13:27;29.20;34.40
3896;DHT22;1963;48.804;8.358;2022-07-15T13:16:12;29.10;34.50
3896;DHT22;1963;48.804;8.358;2022-07-15T13:18:49;29.00;33.80
3896;DHT22;1963;48.804;8.358;2022-07-15T13:21:35;29.00;34.20
3896;DHT22;1963;48.804;8.358;2022-07-15T13:24:04;29.10;34.50
3896;DHT22;1963;48.804;8.358;2022-07-15T13:26:44;28.90;34.70
3896;DHT22;1963;48.804;8.358;2022-07-15T13:29:16;29.00;34.60
3896;DHT22;1963;48.804;8.358;2022-07-15T13:31:44;29.00;34.40
3896;DHT22;1963;48.804;8.358;2022-07-15T13:34:40;28.90;34.70
3896;DHT22;1963;48.804;8.358;2022-07-15T13:38:16;28.90;34.20
3896;DHT22;1963;48.804;8.358;2022-07-15T13:40:44;28.80;35.30
3896;DHT22;1963;48.804;8.358;2022-07-15T13:43:14;28.70;34.90
3896;DHT22;1963;48.804;8.358;2022-07-15T13:45:44;28.60;35.20
3896;DHT22;1963;48.804;8.358;2022-07-15T13:48:14;28.60;35.60
3896;DHT22;1963;48.804;8.358;2022-07-15T13:50:42;28.50;35.40
3896;DHT22;1963;48.804;8.358;2022-07-15T13:53:27;28.60;35.40
3896;DHT22;1963;48.804;8.358;2022-07-15T13:56:20;28.40;35.20
3896;DHT22;1963;48.804;8.358;2022-07-15T14:17:15;28.30;35.50
3896;DHT22;1963;48.804;8.358;2022-07-15T14:23:41;28.20;36.90
